createdAt,value
2024-01-31T00:00:36.323Z,20.40
2024-01-31T00:01:41.055Z,20.50
2024-01-31T00:02:42.688Z,17.30
2024-01-31T00:03:46.270Z,18.40
2024-01-31T00:04:47.947Z,26.33
2024-01-31T00:05:50.137Z,20.73
2024-01-31T00:06:52.191Z,21.88
2024-01-31T00:07:53.819Z,19.77
2024-01-31T00:08:56.706Z,23.75
2024-01-31T00:09:58.319Z,24.88
2024-01-31T00:11:00.030Z,20.65
2024-01-31T00:12:01.672Z,20.42
2024-01-31T00:13:03.318Z,18.02
2024-01-31T00:14:07.872Z,17.75
2024-01-31T00:15:09.722Z,17.55
2024-01-31T00:16:11.297Z,18.50
2024-01-31T00:17:13.022Z,17.33
2024-01-31T00:18:14.661Z,14.57
2024-01-31T00:19:16.419Z,14.43
2024-01-31T00:20:18.036Z,13.55
2024-01-31T00:21:19.833Z,26.67
2024-01-31T00:22:21.470Z,15.18
2024-01-31T00:23:24.303Z,12.45
2024-01-31T00:24:25.944Z,13.50
2024-01-31T00:25:27.629Z,13.65
2024-01-31T00:26:29.207Z,11.23
2024-01-31T00:27:30.796Z,10.68
2024-01-31T00:28:32.454Z,12.10
2024-01-31T00:29:36.210Z,11.27
2024-01-31T00:30:39.526Z,12.77
2024-01-31T00:31:41.130Z,13.27
2024-01-31T00:32:42.762Z,12.30
2024-01-31T00:33:44.448Z,10.32
2024-01-31T00:34:46.257Z,10.23
2024-01-31T00:35:47.842Z,11.35
2024-01-31T00:36:49.414Z,13.20
2024-01-31T00:37:52.009Z,13.10
2024-01-31T00:38:53.595Z,32.15
2024-01-31T00:39:55.226Z,20.90
2024-01-31T00:40:56.805Z,23.83
2024-01-31T00:41:59.319Z,26.35
2024-01-31T00:43:00.998Z,19.60
2024-01-31T00:44:02.621Z,19.95
2024-01-31T00:45:04.753Z,21.67
2024-01-31T00:46:06.512Z,21.85
2024-01-31T00:47:08.296Z,19.30
2024-01-31T00:48:09.992Z,18.63
2024-01-31T00:49:11.672Z,21.10
2024-01-31T00:50:16.680Z,18.27
2024-01-31T00:51:18.244Z,17.80
2024-01-31T00:52:19.882Z,17.92
2024-01-31T00:53:21.509Z,17.65
2024-01-31T00:54:23.129Z,16.63
2024-01-31T00:55:24.873Z,14.25
2024-01-31T00:56:26.457Z,21.35
2024-01-31T00:57:28.035Z,20.30
2024-01-31T00:58:29.635Z,21.33
2024-01-31T00:59:31.442Z,20.08
2024-01-31T01:00:33.376Z,16.88
2024-01-31T01:01:35.058Z,18.48
2024-01-31T01:02:37.515Z,17.67
2024-01-31T01:03:39.068Z,21.23
2024-01-31T01:04:40.799Z,23.25
2024-01-31T01:05:42.385Z,33.58
2024-01-31T01:06:44.081Z,25.58
2024-01-31T01:07:46.902Z,37.35
2024-01-31T01:08:48.623Z,37.97
2024-01-31T01:09:50.766Z,25.08
2024-01-31T01:10:52.485Z,31.75
2024-01-31T01:11:54.101Z,30.05
2024-01-31T01:12:57.740Z,28.77
2024-01-31T01:13:59.331Z,22.48
2024-01-31T01:15:09.122Z,21.40
2024-01-31T01:16:17.042Z,13.07
2024-01-31T01:17:18.649Z,14.65
2024-01-31T01:18:20.231Z,21.00
2024-01-31T01:19:21.851Z,22.13
2024-01-31T01:20:23.455Z,15.38
2024-01-31T01:21:25.044Z,16.60
2024-01-31T01:22:26.784Z,18.48
2024-01-31T01:23:28.393Z,18.45
2024-01-31T01:24:29.952Z,23.20
2024-01-31T01:25:31.541Z,20.08
2024-01-31T01:26:33.228Z,23.90
2024-01-31T01:27:35.979Z,21.45
2024-01-31T01:28:39.595Z,23.15
2024-01-31T01:29:41.226Z,22.95
2024-01-31T01:30:42.729Z,20.02
2024-01-31T01:31:44.350Z,15.30
2024-01-31T01:32:46.110Z,16.33
2024-01-31T01:33:49.010Z,18.17
2024-01-31T01:34:50.752Z,21.70
2024-01-31T01:35:52.864Z,18.10
2024-01-31T01:36:54.370Z,16.83
2024-01-31T01:37:56.019Z,15.52
2024-01-31T01:38:57.563Z,19.20
2024-01-31T01:39:59.130Z,13.05
2024-01-31T01:41:00.683Z,18.02
2024-01-31T01:42:02.710Z,20.50
2024-01-31T01:43:16.013Z,18.92
2024-01-31T01:44:17.920Z,17.33
2024-01-31T01:45:19.477Z,12.98
2024-01-31T01:46:23.261Z,14.57
2024-01-31T01:47:25.630Z,13.48
2024-01-31T01:48:27.353Z,11.85
2024-01-31T01:49:30.308Z,14.63
2024-01-31T01:50:31.850Z,28.50
2024-01-31T01:51:33.877Z,22.70
2024-01-31T01:52:35.941Z,11.27
2024-01-31T01:53:38.647Z,20.83
2024-01-31T01:54:40.357Z,14.07
2024-01-31T01:55:43.114Z,15.20
2024-01-31T01:56:46.704Z,11.85
2024-01-31T01:57:48.683Z,11.68
2024-01-31T01:58:50.751Z,16.90
2024-01-31T01:59:52.963Z,25.67
2024-01-31T02:00:54.929Z,27.10
2024-01-31T02:01:56.913Z,20.10
2024-01-31T02:02:58.780Z,24.38
2024-01-31T02:04:01.477Z,20.52
2024-01-31T02:05:03.542Z,16.35
2024-01-31T02:06:05.527Z,17.50
2024-01-31T02:07:07.341Z,24.45
2024-01-31T02:08:09.411Z,24.08
2024-01-31T02:09:11.464Z,23.73
2024-01-31T02:10:13.105Z,27.50
2024-01-31T02:11:14.800Z,35.45
2024-01-31T02:12:16.496Z,53.28
2024-01-31T02:13:18.165Z,61.28
2024-01-31T02:14:19.843Z,51.13
2024-01-31T02:15:21.401Z,43.85
2024-01-31T02:16:22.969Z,35.13
2024-01-31T02:17:24.594Z,32.17
2024-01-31T02:18:29.989Z,26.70
2024-01-31T02:19:31.700Z,26.23
2024-01-31T02:20:33.343Z,25.30
2024-01-31T02:21:38.130Z,22.50
2024-01-31T02:22:39.848Z,23.83
2024-01-31T02:23:41.450Z,22.10
2024-01-31T02:24:43.005Z,25.75
2024-01-31T02:25:46.079Z,26.60
2024-01-31T02:26:47.980Z,27.70
2024-01-31T02:27:49.542Z,23.90
2024-01-31T02:28:51.160Z,26.73
2024-01-31T02:29:52.685Z,24.83
2024-01-31T02:30:55.058Z,25.08
2024-01-31T02:31:56.625Z,22.95
2024-01-31T02:32:58.266Z,25.40
2024-01-31T02:34:00.038Z,28.85
2024-01-31T02:35:01.800Z,26.90
2024-01-31T02:36:03.641Z,24.90
2024-01-31T02:37:05.273Z,25.48
2024-01-31T02:38:06.914Z,29.10
2024-01-31T02:39:08.605Z,28.00
2024-01-31T02:40:10.423Z,30.85
2024-01-31T02:41:12.004Z,23.40
2024-01-31T02:42:15.510Z,25.00
2024-01-31T02:43:17.391Z,24.15
2024-01-31T02:44:23.145Z,24.98
2024-01-31T02:45:24.851Z,26.38
2024-01-31T02:46:26.517Z,25.38
2024-01-31T02:47:28.093Z,23.05
2024-01-31T02:48:29.696Z,22.20
2024-01-31T02:49:31.595Z,21.50
2024-01-31T02:50:34.011Z,18.17
2024-01-31T02:51:35.751Z,20.17
2024-01-31T02:52:37.424Z,19.85
2024-01-31T02:53:39.023Z,17.83
2024-01-31T02:54:40.572Z,16.42
2024-01-31T02:55:42.267Z,18.08
2024-01-31T02:56:44.092Z,17.83
2024-01-31T02:57:45.916Z,17.80
2024-01-31T02:58:47.484Z,17.58
2024-01-31T02:59:49.058Z,16.50
2024-01-31T03:00:50.620Z,18.35
2024-01-31T03:01:52.315Z,14.75
2024-01-31T03:02:53.906Z,15.57
2024-01-31T03:03:55.505Z,17.13
2024-01-31T03:04:57.234Z,15.25
2024-01-31T03:05:58.934Z,16.10
2024-01-31T03:07:00.690Z,19.50
2024-01-31T03:08:02.314Z,18.08
2024-01-31T03:09:04.031Z,15.82
2024-01-31T03:10:06.386Z,18.58
2024-01-31T03:11:07.928Z,16.30
2024-01-31T03:12:09.532Z,14.88
2024-01-31T03:13:12.382Z,17.17
2024-01-31T03:14:14.019Z,16.02
2024-01-31T03:15:15.562Z,15.70
2024-01-31T03:16:17.160Z,17.23
2024-01-31T03:17:18.710Z,17.35
2024-01-31T03:18:20.410Z,15.43
2024-01-31T03:19:22.062Z,16.42
2024-01-31T03:20:23.807Z,17.45
2024-01-31T03:21:25.415Z,17.45
2024-01-31T03:22:26.983Z,17.05
2024-01-31T03:23:28.537Z,15.00
2024-01-31T03:24:30.102Z,16.52
2024-01-31T03:25:31.737Z,14.85
2024-01-31T03:26:33.336Z,18.02
2024-01-31T03:27:35.204Z,15.48
2024-01-31T03:28:36.828Z,16.48
2024-01-31T03:29:38.490Z,16.27
2024-01-31T03:30:40.013Z,19.30
2024-01-31T03:31:41.720Z,24.73
2024-01-31T03:32:43.689Z,20.77
2024-01-31T03:33:45.656Z,13.15
2024-01-31T03:34:47.413Z,19.25
2024-01-31T03:35:49.244Z,15.38
2024-01-31T03:36:51.001Z,14.38
2024-01-31T03:37:52.594Z,11.75
2024-01-31T03:38:55.553Z,10.27
2024-01-31T03:39:57.169Z,13.52
2024-01-31T03:40:58.784Z,10.70
2024-01-31T03:42:00.638Z,15.82
2024-01-31T03:43:02.326Z,11.15
2024-01-31T03:44:03.963Z,11.88
2024-01-31T03:45:07.018Z,10.95
2024-01-31T03:46:08.748Z,11.10
2024-01-31T03:47:10.381Z,12.60
2024-01-31T03:48:12.094Z,12.32
2024-01-31T03:49:13.822Z,10.18
2024-01-31T03:50:15.478Z,12.45
2024-01-31T03:51:24.689Z,12.07
2024-01-31T03:52:26.444Z,15.98
2024-01-31T03:53:28.281Z,15.13
2024-01-31T03:54:29.957Z,17.63
2024-01-31T03:55:33.914Z,18.92
2024-01-31T03:56:35.672Z,21.65
2024-01-31T03:57:37.672Z,26.15
2024-01-31T03:58:42.902Z,20.05
2024-01-31T03:59:44.520Z,24.80
2024-01-31T04:00:46.220Z,23.60
2024-01-31T04:01:51.528Z,22.63
2024-01-31T04:02:53.124Z,20.85
2024-01-31T04:03:54.724Z,25.75
2024-01-31T04:04:56.449Z,23.73
2024-01-31T04:05:58.097Z,22.00
2024-01-31T04:06:59.702Z,20.65
2024-01-31T04:08:01.317Z,20.35
2024-01-31T04:09:02.889Z,19.67
2024-01-31T04:10:04.881Z,20.58
2024-01-31T04:11:06.646Z,17.92
2024-01-31T04:12:08.421Z,17.67
2024-01-31T04:13:10.018Z,20.10
2024-01-31T04:14:11.636Z,18.50
2024-01-31T04:15:13.216Z,21.63
2024-01-31T04:16:17.769Z,17.83
2024-01-31T04:17:20.393Z,15.15
2024-01-31T04:18:22.291Z,12.65
2024-01-31T04:19:23.974Z,14.48
2024-01-31T04:20:25.677Z,16.33
2024-01-31T04:21:27.290Z,14.80
2024-01-31T04:22:28.850Z,15.93
2024-01-31T04:23:30.494Z,16.15
2024-01-31T04:24:32.019Z,16.40
2024-01-31T04:25:33.687Z,15.80
2024-01-31T04:26:42.747Z,15.30
2024-01-31T04:27:44.276Z,12.88
2024-01-31T04:28:46.233Z,15.75
2024-01-31T04:29:48.187Z,18.67
2024-01-31T04:30:49.936Z,12.63
2024-01-31T04:31:54.621Z,12.35
2024-01-31T04:32:56.245Z,12.00
2024-01-31T04:33:57.978Z,10.98
2024-01-31T04:34:59.630Z,9.27
2024-01-31T04:36:01.232Z,9.93
2024-01-31T04:37:02.839Z,9.95
2024-01-31T04:38:04.559Z,10.80
2024-01-31T04:39:06.122Z,15.80
2024-01-31T04:40:08.699Z,16.30
2024-01-31T04:41:10.379Z,19.45
2024-01-31T04:42:11.924Z,14.98
2024-01-31T04:43:19.773Z,12.30
2024-01-31T04:44:21.347Z,13.52
2024-01-31T04:45:22.959Z,18.23
2024-01-31T04:46:24.589Z,21.05
2024-01-31T04:47:27.229Z,15.70
2024-01-31T04:48:28.945Z,16.90
2024-01-31T04:49:30.830Z,15.07
2024-01-31T04:50:32.640Z,15.75
2024-01-31T04:51:34.233Z,14.32
2024-01-31T04:52:36.425Z,11.32
2024-01-31T04:53:38.018Z,12.82
2024-01-31T04:54:42.626Z,15.63
2024-01-31T04:55:45.863Z,13.60
2024-01-31T04:56:47.540Z,13.50
2024-01-31T04:57:49.135Z,15.35
2024-01-31T04:58:50.742Z,14.90
2024-01-31T04:59:54.583Z,13.82
2024-01-31T05:00:57.720Z,12.43
2024-01-31T05:01:59.406Z,15.10
2024-01-31T05:03:01.114Z,20.90
2024-01-31T05:04:03.012Z,15.07
2024-01-31T05:05:05.333Z,16.20
2024-01-31T05:06:07.053Z,14.48
2024-01-31T05:07:08.919Z,18.33
2024-01-31T05:08:10.588Z,18.65
2024-01-31T05:09:12.253Z,17.55
2024-01-31T05:10:14.145Z,14.77
2024-01-31T05:11:15.955Z,17.10
2024-01-31T05:12:17.526Z,24.50
2024-01-31T05:13:19.168Z,19.30
2024-01-31T05:14:21.437Z,14.88
2024-01-31T05:15:23.042Z,17.80
2024-01-31T05:16:24.796Z,23.77
2024-01-31T05:17:26.478Z,16.42
2024-01-31T05:18:28.239Z,25.42
2024-01-31T05:19:31.178Z,23.50
2024-01-31T05:20:33.175Z,25.50
2024-01-31T05:21:34.750Z,17.23
2024-01-31T05:22:36.323Z,15.70
2024-01-31T05:23:39.072Z,18.00
2024-01-31T05:24:41.732Z,21.92
2024-01-31T05:25:43.521Z,26.67
2024-01-31T05:26:47.403Z,27.40
2024-01-31T05:27:52.185Z,27.65
2024-01-31T05:28:53.769Z,26.85
2024-01-31T05:29:55.315Z,29.55
2024-01-31T05:30:56.879Z,26.02
2024-01-31T05:31:58.932Z,27.90
2024-01-31T05:33:00.829Z,24.52
2024-01-31T05:34:02.913Z,23.75
2024-01-31T05:35:04.992Z,26.75
2024-01-31T05:36:07.928Z,22.40
2024-01-31T05:37:09.548Z,26.92
2024-01-31T05:38:11.134Z,25.20
2024-01-31T05:39:12.684Z,23.02
2024-01-31T05:40:17.957Z,27.13
2024-01-31T05:41:19.601Z,54.15
2024-01-31T05:42:21.197Z,35.97
2024-01-31T05:43:22.780Z,32.58
2024-01-31T05:44:24.430Z,35.63
2024-01-31T05:45:26.352Z,32.42
2024-01-31T05:46:27.990Z,34.97
2024-01-31T05:47:29.807Z,31.85
2024-01-31T05:48:31.434Z,35.00
2024-01-31T05:49:33.173Z,29.92
2024-01-31T05:50:35.193Z,30.70
2024-01-31T05:51:37.206Z,29.10
2024-01-31T05:52:39.032Z,29.77
2024-01-31T05:53:41.443Z,34.10
2024-01-31T05:54:43.222Z,30.65
2024-01-31T05:55:44.940Z,34.83
2024-01-31T05:56:46.609Z,35.03
2024-01-31T05:57:51.434Z,30.92
2024-01-31T05:58:52.990Z,21.88
2024-01-31T05:59:54.524Z,25.45
2024-01-31T06:00:56.252Z,22.38
2024-01-31T06:01:58.807Z,19.10
2024-01-31T06:03:01.244Z,23.05
2024-01-31T06:04:05.273Z,21.67
2024-01-31T06:05:07.553Z,18.42
2024-01-31T06:06:09.255Z,20.98
2024-01-31T06:07:13.506Z,19.40
2024-01-31T06:08:15.170Z,22.65
2024-01-31T06:09:16.815Z,25.67
2024-01-31T06:10:18.502Z,20.38
2024-01-31T06:11:20.186Z,22.98
2024-01-31T06:12:21.711Z,33.83
2024-01-31T06:13:23.274Z,34.35
2024-01-31T06:14:24.883Z,29.80
2024-01-31T06:15:26.577Z,29.10
2024-01-31T06:16:28.309Z,30.95
2024-01-31T06:17:29.888Z,27.85
2024-01-31T06:18:35.425Z,33.00
2024-01-31T06:19:39.174Z,34.78
2024-01-31T06:20:42.031Z,30.67
2024-01-31T06:21:43.661Z,28.90
2024-01-31T06:22:45.465Z,28.85
2024-01-31T06:23:47.852Z,23.80
2024-01-31T06:24:49.476Z,25.30
2024-01-31T06:25:51.071Z,21.45
2024-01-31T06:26:52.665Z,25.08
2024-01-31T06:27:54.465Z,23.10
2024-01-31T06:28:56.110Z,21.83
2024-01-31T06:29:57.818Z,22.33
2024-01-31T06:31:04.834Z,26.27
2024-01-31T06:32:07.328Z,26.52
2024-01-31T06:33:09.420Z,31.08
2024-01-31T06:34:11.140Z,35.40
2024-01-31T06:35:12.932Z,33.42
2024-01-31T06:36:14.565Z,28.88
2024-01-31T06:37:16.854Z,24.65
2024-01-31T06:38:18.525Z,21.48
2024-01-31T06:39:20.720Z,23.55
2024-01-31T06:40:23.148Z,26.15
2024-01-31T06:41:24.688Z,18.50
2024-01-31T06:42:26.450Z,17.25
2024-01-31T06:43:28.106Z,20.20
2024-01-31T06:44:29.763Z,20.17
2024-01-31T06:45:31.390Z,17.73
2024-01-31T06:46:33.019Z,18.83
2024-01-31T06:47:34.764Z,15.77
2024-01-31T06:48:36.939Z,21.33
2024-01-31T06:49:38.850Z,17.08
2024-01-31T06:50:40.476Z,20.35
2024-01-31T06:51:42.111Z,17.15
2024-01-31T06:52:43.783Z,19.75
2024-01-31T06:53:45.725Z,18.95
2024-01-31T06:54:47.854Z,18.45
2024-01-31T06:55:49.486Z,23.88
2024-01-31T06:56:51.065Z,28.55
2024-01-31T06:57:53.089Z,32.17
2024-01-31T06:58:56.311Z,34.60
2024-01-31T06:59:57.871Z,45.38
2024-01-31T07:01:02.741Z,32.05
2024-01-31T07:02:04.632Z,28.58
2024-01-31T07:03:06.446Z,28.63
2024-01-31T07:04:08.571Z,26.80
2024-01-31T07:05:10.324Z,29.17
2024-01-31T07:06:12.761Z,25.98
2024-01-31T07:07:14.703Z,24.40
2024-01-31T07:08:16.477Z,20.45
2024-01-31T07:09:18.149Z,25.75
2024-01-31T07:10:19.844Z,21.75
2024-01-31T07:11:22.142Z,21.95
2024-01-31T07:12:23.717Z,22.45
2024-01-31T07:13:25.324Z,22.48
2024-01-31T07:14:26.902Z,24.98
2024-01-31T07:15:28.569Z,26.23
2024-01-31T07:16:30.392Z,24.63
2024-01-31T07:17:32.294Z,20.52
2024-01-31T07:18:33.937Z,20.95
2024-01-31T07:19:35.573Z,22.27
2024-01-31T07:20:37.213Z,24.33
2024-01-31T07:21:38.765Z,23.02
2024-01-31T07:22:40.426Z,27.52
2024-01-31T07:23:41.996Z,21.45
2024-01-31T07:24:44.663Z,24.55
2024-01-31T07:25:46.367Z,25.85
2024-01-31T07:26:48.381Z,25.08
2024-01-31T07:27:51.265Z,22.10
2024-01-31T07:28:53.199Z,25.27
2024-01-31T07:29:54.804Z,25.40
2024-01-31T07:30:56.387Z,26.23
2024-01-31T07:31:58.002Z,21.50
2024-01-31T07:32:59.562Z,26.67
2024-01-31T07:34:01.397Z,20.45
2024-01-31T07:35:03.020Z,22.48
2024-01-31T07:36:05.036Z,26.65
2024-01-31T07:37:06.942Z,26.70
2024-01-31T07:38:08.532Z,24.88
2024-01-31T07:39:10.959Z,22.13
2024-01-31T07:40:12.969Z,25.05
2024-01-31T07:41:15.125Z,20.95
2024-01-31T07:42:16.693Z,22.23
2024-01-31T07:43:18.333Z,20.38
2024-01-31T07:44:19.898Z,20.38
2024-01-31T07:45:21.650Z,17.65
2024-01-31T07:46:23.376Z,22.58
2024-01-31T07:47:25.115Z,19.95
2024-01-31T07:48:26.702Z,19.67
2024-01-31T07:49:28.300Z,18.45
2024-01-31T07:50:33.988Z,17.00
2024-01-31T07:51:44.852Z,20.95
2024-01-31T07:52:46.665Z,15.85
2024-01-31T07:53:48.371Z,15.93
2024-01-31T07:54:49.932Z,16.42
2024-01-31T07:55:51.710Z,19.40
2024-01-31T07:56:53.437Z,17.15
2024-01-31T07:57:54.963Z,16.80
2024-01-31T07:58:56.553Z,17.98
2024-01-31T07:59:58.141Z,17.85
2024-01-31T08:01:00.186Z,16.05
2024-01-31T08:02:02.107Z,19.58
2024-01-31T08:03:04.732Z,17.80
2024-01-31T08:04:06.603Z,19.52
2024-01-31T08:05:08.428Z,17.88
2024-01-31T08:06:10.073Z,16.65
2024-01-31T08:07:14.656Z,15.40
2024-01-31T08:08:17.611Z,18.25
2024-01-31T08:09:22.794Z,15.88
2024-01-31T08:10:24.942Z,18.08
2024-01-31T08:11:26.537Z,15.80
2024-01-31T08:12:28.056Z,17.95
2024-01-31T08:13:29.813Z,14.52
2024-01-31T08:14:31.432Z,26.13
2024-01-31T08:15:33.898Z,20.25
2024-01-31T08:16:35.596Z,25.65
2024-01-31T08:17:37.295Z,17.52
2024-01-31T08:18:39.570Z,23.35
2024-01-31T08:19:41.330Z,24.95
2024-01-31T08:20:43.056Z,17.30
2024-01-31T08:21:44.686Z,14.85
2024-01-31T08:22:46.308Z,12.75
2024-01-31T08:23:47.898Z,14.25
2024-01-31T08:24:50.946Z,15.30
2024-01-31T08:25:52.639Z,15.10
2024-01-31T08:26:54.307Z,15.60
2024-01-31T08:27:55.880Z,12.93
2024-01-31T08:29:07.545Z,12.57
2024-01-31T08:30:17.960Z,14.73
2024-01-31T08:31:19.585Z,13.15
2024-01-31T08:32:21.172Z,12.73
2024-01-31T08:33:22.893Z,11.65
2024-01-31T08:34:27.417Z,11.98
2024-01-31T08:35:31.574Z,11.43
2024-01-31T08:36:33.206Z,16.33
2024-01-31T08:37:34.976Z,13.90
2024-01-31T08:38:39.446Z,19.77
2024-01-31T08:39:42.319Z,13.82
2024-01-31T08:40:43.858Z,14.68
2024-01-31T08:41:45.702Z,14.38
2024-01-31T08:42:47.385Z,16.85
2024-01-31T08:43:48.998Z,14.65
2024-01-31T08:44:51.662Z,14.10
2024-01-31T08:45:54.537Z,15.18
2024-01-31T08:47:04.509Z,14.80
2024-01-31T08:48:17.724Z,13.40
2024-01-31T08:49:19.499Z,15.80
2024-01-31T08:50:21.371Z,14.05
2024-01-31T08:51:23.762Z,12.43
2024-01-31T08:52:25.358Z,14.38
2024-01-31T08:53:26.942Z,13.20
2024-01-31T08:54:28.565Z,14.43
2024-01-31T08:55:30.315Z,12.63
2024-01-31T08:56:32.200Z,13.50
2024-01-31T08:57:33.885Z,12.63
2024-01-31T08:58:35.505Z,17.90
2024-01-31T08:59:37.040Z,16.05
2024-01-31T09:00:38.657Z,16.35
2024-01-31T09:01:47.249Z,13.65
2024-01-31T09:02:49.079Z,13.32
2024-01-31T09:03:50.766Z,16.63
2024-01-31T09:04:52.421Z,26.77
2024-01-31T09:05:55.266Z,14.85
2024-01-31T09:06:57.138Z,90.55
2024-01-31T09:08:00.729Z,43.85
2024-01-31T09:09:02.501Z,20.75
2024-01-31T09:10:05.740Z,68.28
2024-01-31T09:11:07.365Z,186.05
2024-01-31T09:12:09.764Z,90.95
2024-01-31T09:13:11.440Z,46.85
2024-01-31T09:14:13.790Z,19.15
2024-01-31T09:15:16.107Z,25.35
2024-01-31T09:16:18.099Z,12.68
2024-01-31T09:17:19.786Z,12.82
2024-01-31T09:18:22.213Z,11.98
2024-01-31T09:19:24.135Z,14.85
2024-01-31T09:20:25.774Z,11.95
2024-01-31T09:21:28.245Z,15.20
2024-01-31T09:22:29.862Z,15.73
2024-01-31T09:23:31.445Z,16.23
2024-01-31T09:24:33.002Z,13.57
2024-01-31T09:25:34.690Z,16.08
2024-01-31T09:26:36.272Z,13.30
2024-01-31T09:27:38.065Z,14.73
2024-01-31T09:28:40.515Z,15.13
2024-01-31T09:29:44.400Z,14.45
2024-01-31T09:30:46.307Z,12.90
2024-01-31T09:31:48.501Z,12.15
2024-01-31T09:32:50.201Z,14.00
2024-01-31T09:33:53.085Z,12.48
2024-01-31T09:34:56.969Z,12.30
2024-01-31T09:35:59.059Z,12.48
2024-01-31T09:37:00.645Z,12.02
2024-01-31T09:38:02.291Z,11.82
2024-01-31T09:39:04.811Z,12.50
2024-01-31T09:40:09.334Z,13.88
2024-01-31T09:41:12.475Z,14.27
2024-01-31T09:42:14.067Z,12.43
2024-01-31T09:43:15.701Z,10.60
2024-01-31T09:44:18.971Z,12.60
2024-01-31T09:45:22.690Z,13.82
2024-01-31T09:46:24.786Z,10.40
2024-01-31T09:47:29.005Z,10.90
2024-01-31T09:48:32.012Z,12.73
2024-01-31T09:49:33.809Z,12.35
2024-01-31T09:50:35.464Z,13.02
2024-01-31T09:51:38.774Z,15.43
2024-01-31T09:52:41.984Z,15.07
2024-01-31T09:53:46.751Z,11.30
2024-01-31T09:54:48.500Z,11.65
2024-01-31T09:55:56.339Z,12.18
2024-01-31T09:56:58.726Z,12.90
2024-01-31T09:58:01.476Z,12.60
2024-01-31T09:59:04.519Z,12.45
2024-01-31T10:00:06.724Z,11.60
2024-01-31T10:01:14.801Z,11.75
2024-01-31T10:02:23.805Z,13.77
2024-01-31T10:03:25.806Z,12.90
2024-01-31T10:04:27.491Z,11.30
2024-01-31T10:05:29.060Z,14.82
2024-01-31T10:06:31.184Z,12.68
2024-01-31T10:07:32.849Z,13.38
2024-01-31T10:08:36.190Z,16.13
2024-01-31T10:09:37.835Z,13.18
2024-01-31T10:10:39.623Z,13.77
2024-01-31T10:11:47.680Z,12.63
2024-01-31T10:12:49.256Z,17.02
2024-01-31T10:13:52.157Z,14.02
2024-01-31T10:14:53.992Z,13.93
2024-01-31T10:15:55.728Z,14.23
2024-01-31T10:16:57.333Z,13.52
2024-01-31T10:17:59.530Z,13.48
2024-01-31T10:19:01.208Z,13.80
2024-01-31T10:20:08.721Z,11.27
2024-01-31T10:21:11.951Z,11.40
2024-01-31T10:22:16.119Z,12.63
2024-01-31T10:23:18.039Z,13.02
2024-01-31T10:24:19.774Z,13.23
2024-01-31T10:25:21.763Z,13.82
2024-01-31T10:26:23.881Z,11.00
2024-01-31T10:27:25.688Z,10.00
2024-01-31T10:28:29.700Z,11.43
2024-01-31T10:29:33.074Z,11.80
2024-01-31T10:30:44.365Z,11.68
2024-01-31T10:31:47.900Z,9.68
2024-01-31T10:32:51.406Z,9.65
2024-01-31T10:33:53.753Z,10.82
2024-01-31T10:35:20.404Z,7.88
2024-01-31T10:37:08.550Z,11.68
2024-01-31T10:37:54.810Z,8.70
2024-01-31T10:38:59.729Z,9.93
2024-01-31T10:40:03.159Z,11.75
2024-01-31T10:41:07.702Z,10.27
2024-01-31T10:42:10.174Z,13.55
2024-01-31T10:43:11.825Z,12.02
2024-01-31T10:44:15.916Z,9.63
2024-01-31T10:45:20.165Z,9.02
2024-01-31T10:46:21.949Z,11.10
2024-01-31T10:47:23.571Z,11.27
2024-01-31T10:48:25.410Z,11.30
2024-01-31T10:49:27.130Z,9.80
2024-01-31T10:50:32.906Z,9.00
2024-01-31T10:51:37.075Z,10.40
2024-01-31T10:52:40.866Z,8.95
2024-01-31T10:53:44.108Z,10.57
2024-01-31T10:54:53.653Z,11.15
2024-01-31T10:55:56.320Z,10.05
2024-01-31T10:56:58.783Z,9.10
2024-01-31T10:58:02.560Z,12.20
2024-01-31T10:59:06.321Z,12.90
2024-01-31T11:00:23.152Z,12.02
2024-01-31T11:01:31.277Z,8.93
2024-01-31T11:02:33.672Z,10.85
2024-01-31T11:03:35.890Z,12.82
2024-01-31T11:04:40.266Z,14.55
2024-01-31T11:05:42.615Z,17.67
2024-01-31T11:06:44.452Z,14.48
2024-01-31T11:07:46.947Z,12.07
2024-01-31T11:08:48.983Z,15.35
2024-01-31T11:09:50.616Z,12.88
2024-01-31T11:10:52.249Z,13.55
2024-01-31T11:12:04.900Z,11.57
2024-01-31T11:13:07.049Z,17.20
2024-01-31T11:14:10.409Z,12.23
2024-01-31T11:15:12.352Z,12.18
2024-01-31T11:16:25.274Z,18.98
2024-01-31T11:17:34.584Z,13.60
2024-01-31T11:18:37.571Z,11.05
2024-01-31T11:19:52.240Z,10.25
2024-01-31T11:20:54.042Z,12.73
2024-01-31T11:21:55.742Z,13.73
2024-01-31T11:23:00.742Z,11.77
2024-01-31T11:24:02.494Z,10.63
2024-01-31T11:25:08.861Z,11.98
2024-01-31T11:26:10.548Z,13.00
2024-01-31T11:27:13.953Z,13.65
2024-01-31T11:28:18.096Z,13.02
2024-01-31T11:29:20.661Z,10.05
2024-01-31T11:30:24.119Z,9.18
2024-01-31T11:31:25.896Z,10.50
2024-01-31T11:32:27.746Z,11.80
2024-01-31T11:33:30.145Z,6.72
2024-01-31T11:34:32.074Z,10.88
2024-01-31T11:35:34.076Z,9.05
2024-01-31T11:36:35.680Z,9.45
2024-01-31T11:37:37.268Z,9.55
2024-01-31T11:38:39.549Z,7.95
2024-01-31T11:39:41.354Z,8.52
2024-01-31T11:40:42.989Z,10.15
2024-01-31T11:41:44.618Z,9.02
2024-01-31T11:42:47.903Z,8.25
2024-01-31T11:43:50.098Z,9.90
2024-01-31T11:44:52.464Z,25.27
2024-01-31T11:45:54.346Z,9.70
2024-01-31T11:46:55.985Z,11.65
2024-01-31T11:47:59.630Z,7.43
2024-01-31T11:49:01.617Z,7.03
2024-01-31T11:50:04.278Z,9.70
2024-01-31T11:51:06.110Z,12.85
2024-01-31T11:52:07.739Z,9.75
2024-01-31T11:53:09.588Z,10.15
2024-01-31T11:54:11.462Z,9.77
2024-01-31T11:55:13.315Z,7.97
2024-01-31T11:56:14.970Z,9.57
2024-01-31T11:57:17.154Z,10.00
2024-01-31T11:58:19.058Z,9.88
2024-01-31T11:59:21.571Z,9.70
2024-01-31T12:00:24.468Z,9.23
2024-01-31T12:01:27.603Z,12.68
2024-01-31T12:02:29.423Z,8.35
2024-01-31T12:03:31.766Z,12.73
2024-01-31T12:04:33.697Z,9.80
2024-01-31T12:05:35.409Z,9.30
2024-01-31T12:06:37.120Z,12.38
2024-01-31T12:07:39.346Z,8.38
2024-01-31T12:08:47.264Z,10.05
2024-01-31T12:09:49.015Z,9.23
2024-01-31T12:10:51.339Z,13.18
2024-01-31T12:11:53.391Z,11.40
2024-01-31T12:13:02.254Z,9.30
2024-01-31T12:14:04.992Z,10.63
2024-01-31T12:15:07.079Z,7.45
2024-01-31T12:16:09.572Z,9.23
2024-01-31T12:17:27.383Z,9.93
2024-01-31T12:18:29.385Z,8.13
2024-01-31T12:19:31.351Z,8.80
2024-01-31T12:20:33.076Z,8.80
2024-01-31T12:21:42.799Z,9.23
2024-01-31T12:22:46.291Z,10.25
2024-01-31T12:23:47.945Z,8.63
2024-01-31T12:24:49.511Z,9.05
2024-01-31T12:25:51.062Z,9.20
2024-01-31T12:26:52.677Z,8.48
2024-01-31T12:27:54.343Z,6.85
2024-01-31T12:28:56.636Z,7.05
2024-01-31T12:29:58.547Z,8.65
2024-01-31T12:31:00.132Z,9.65
2024-01-31T12:32:01.802Z,7.07
2024-01-31T12:33:04.148Z,7.80
2024-01-31T12:34:05.728Z,7.13
2024-01-31T12:35:07.837Z,8.82
2024-01-31T12:36:12.537Z,10.93
2024-01-31T12:37:14.411Z,7.55
2024-01-31T12:38:16.057Z,6.80
2024-01-31T12:39:20.345Z,7.22
2024-01-31T12:40:22.463Z,10.63
2024-01-31T12:41:24.775Z,8.93
2024-01-31T12:42:26.804Z,8.98
2024-01-31T12:43:28.700Z,6.30
2024-01-31T12:44:31.543Z,7.53
2024-01-31T12:45:34.439Z,10.55
2024-01-31T12:46:36.099Z,7.70
2024-01-31T12:47:38.164Z,7.13
2024-01-31T12:48:42.433Z,7.05
2024-01-31T12:49:44.873Z,9.18
2024-01-31T12:50:46.745Z,8.63
2024-01-31T12:51:48.452Z,8.98
2024-01-31T12:52:50.241Z,10.30
2024-01-31T12:53:51.884Z,7.32
2024-01-31T12:54:53.540Z,9.95
2024-01-31T12:55:55.061Z,10.82
2024-01-31T12:56:56.873Z,10.63
2024-01-31T12:57:58.424Z,9.05
2024-01-31T12:59:00.039Z,5.30
2024-01-31T13:00:01.971Z,6.05
2024-01-31T13:01:03.774Z,9.75
2024-01-31T13:02:05.590Z,6.85
2024-01-31T13:03:08.894Z,10.57
2024-01-31T13:04:11.154Z,8.63
2024-01-31T13:05:13.170Z,9.77
2024-01-31T13:06:15.699Z,8.27
2024-01-31T13:07:17.752Z,5.70
2024-01-31T13:08:19.872Z,10.50
2024-01-31T13:09:21.970Z,8.10
2024-01-31T13:10:23.549Z,8.90
2024-01-31T13:11:25.125Z,9.05
2024-01-31T13:12:26.706Z,4.85
2024-01-31T13:13:28.317Z,8.57
2024-01-31T13:14:30.966Z,9.32
2024-01-31T13:15:32.840Z,6.18
2024-01-31T13:16:42.323Z,7.22
2024-01-31T13:17:48.176Z,11.95
2024-01-31T13:18:49.992Z,6.82
2024-01-31T13:19:51.654Z,7.53
2024-01-31T13:20:53.568Z,7.38
2024-01-31T13:21:55.177Z,7.70
2024-01-31T13:22:56.735Z,5.93
2024-01-31T13:23:58.383Z,6.80
2024-01-31T13:25:00.037Z,8.88
2024-01-31T13:26:01.883Z,4.90
2024-01-31T13:27:03.893Z,5.35
2024-01-31T13:28:05.632Z,5.35
2024-01-31T13:29:07.214Z,5.80